sensor_id;sensor_type;location;lat;lon;timestamp;temperature;humidity
85164;DHT22;75530;49.300;6.846;2024-02-23T00:01:14;26.90;99.90
85164;DHT22;75530;49.300;6.846;2024-02-23T00:04:15;26.70;99.90
85164;DHT22;75530;49.300;6.846;2024-02-23T00:07:16;26.40;99.90
85164;DHT22;75530;49.300;6.846;2024-02-23T00:10:16;26.10;99.90
85164;DHT22;75530;49.300;6.846;2024-02-23T00:13:17;25.90;99.90
85164;DHT22;75530;49.300;6.846;2024-02-23T00:16:17;25.70;99.90
85164;DHT22;75530;49.300;6.846;2024-02-23T00:19:18;25.50;99.90
85164;DHT22;75530;49.300;6.846;2024-02-23T00:22:19;25.30;99.90
85164;DHT22;75530;49.300;6.846;2024-02-23T00:25:20;25.10;99.90
85164;DHT22;75530;49.300;6.846;2024-02-23T00:28:20;24.90;99.90
85164;DHT22;75530;49.300;6.846;2024-02-23T00:31:21;24.70;99.90
85164;DHT22;75530;49.300;6.846;2024-02-23T00:34:21;24.50;99.90
85164;DHT22;75530;49.300;6.846;2024-02-23T00:37:22;27.10;99.90
85164;DHT22;75530;49.300;6.846;2024-02-23T00:40:23;35.70;99.90
85164;DHT22;75530;49.300;6.846;2024-02-23T00:43:23;40.50;99.90
85164;DHT22;75530;49.300;6.846;2024-02-23T00:46:24;37.90;99.90
85164;DHT22;75530;49.300;6.846;2024-02-23T00:49:25;36.80;99.90
85164;DHT22;75530;49.300;6.846;2024-02-23T00:52:25;35.90;99.90
85164;DHT22;75530;49.300;6.846;2024-02-23T00:55:25;35.10;99.90
85164;DHT22;75530;49.300;6.846;2024-02-23T00:58:27;34.40;99.90
85164;DHT22;75530;49.300;6.846;2024-02-23T01:01:27;33.70;99.90
85164;DHT22;75530;49.300;6.846;2024-02-23T01:04:29;33.10;99.90
85164;DHT22;75530;49.300;6.846;2024-02-23T01:07:29;32.50;99.90
85164;DHT22;75530;49.300;6.846;2024-02-23T01:10:29;31.90;99.90
85164;DHT22;75530;49.300;6.846;2024-02-23T01:13:30;31.40;99.90
85164;DHT22;75530;49.300;6.846;2024-02-23T01:16:30;30.80;99.90
85164;DHT22;75530;49.300;6.846;2024-02-23T01:19:32;30.40;99.90
85164;DHT22;75530;49.300;6.846;2024-02-23T01:22:33;30.00;99.90
85164;DHT22;75530;49.300;6.846;2024-02-23T01:25:33;29.50;99.90
85164;DHT22;75530;49.300;6.846;2024-02-23T01:28:35;29.10;99.90
85164;DHT22;75530;49.300;6.846;2024-02-23T01:31:35;28.70;99.90
85164;DHT22;75530;49.300;6.846;2024-02-23T01:34:36;28.40;99.90
85164;DHT22;75530;49.300;6.846;2024-02-23T01:37:36;28.10;99.90
85164;DHT22;75530;49.300;6.846;2024-02-23T01:40:37;27.70;99.90
85164;DHT22;75530;49.300;6.846;2024-02-23T01:43:37;27.40;99.90
85164;DHT22;75530;49.300;6.846;2024-02-23T01:46:38;27.10;99.90
85164;DHT22;75530;49.300;6.846;2024-02-23T01:49:38;26.80;99.90
85164;DHT22;75530;49.300;6.846;2024-02-23T01:52:39;26.50;99.90
85164;DHT22;75530;49.300;6.846;2024-02-23T01:55:40;26.30;99.90
85164;DHT22;75530;49.300;6.846;2024-02-23T01:58:41;26.00;99.90
85164;DHT22;75530;49.300;6.846;2024-02-23T02:01:42;25.80;99.90
85164;DHT22;75530;49.300;6.846;2024-02-23T02:04:43;25.50;99.90
85164;DHT22;75530;49.300;6.846;2024-02-23T02:07:43;25.30;99.90
85164;DHT22;75530;49.300;6.846;2024-02-23T02:10:45;25.10;99.90
85164;DHT22;75530;49.300;6.846;2024-02-23T02:13:46;24.90;99.90
85164;DHT22;75530;49.300;6.846;2024-02-23T02:16:47;24.80;99.90
85164;DHT22;75530;49.300;6.846;2024-02-23T02:19:48;30.20;99.90
85164;DHT22;75530;49.300;6.846;2024-02-23T02:22:48;38.40;99.90
85164;DHT22;75530;49.300;6.846;2024-02-23T02:25:55;39.30;99.90
85164;DHT22;75530;49.300;6.846;2024-02-23T02:28:55;37.20;99.90
85164;DHT22;75530;49.300;6.846;2024-02-23T02:31:56;36.20;99.90
85164;DHT22;75530;49.300;6.846;2024-02-23T02:34:57;35.40;99.90
85164;DHT22;75530;49.300;6.846;2024-02-23T02:37:57;34.70;99.90
85164;DHT22;75530;49.300;6.846;2024-02-23T02:40:58;34.10;99.90
85164;DHT22;75530;49.300;6.846;2024-02-23T02:44:00;33.40;99.90
85164;DHT22;75530;49.300;6.846;2024-02-23T02:47:01;32.80;99.90
85164;DHT22;75530;49.300;6.846;2024-02-23T02:50:01;32.10;99.90
85164;DHT22;75530;49.300;6.846;2024-02-23T02:53:01;31.60;99.90
85164;DHT22;75530;49.300;6.846;2024-02-23T02:56:05;31.00;99.90
85164;DHT22;75530;49.300;6.846;2024-02-23T02:59:05;30.60;99.90
85164;DHT22;75530;49.300;6.846;2024-02-23T03:02:06;30.10;99.90
85164;DHT22;75530;49.300;6.846;2024-02-23T03:05:06;29.70;99.90
85164;DHT22;75530;49.300;6.846;2024-02-23T03:08:07;29.30;99.90
85164;DHT22;75530;49.300;6.846;2024-02-23T03:11:07;28.90;99.90
85164;DHT22;75530;49.300;6.846;2024-02-23T03:14:08;28.50;99.90
85164;DHT22;75530;49.300;6.846;2024-02-23T03:17:10;28.10;99.90
85164;DHT22;75530;49.300;6.846;2024-02-23T03:20:10;27.80;99.90
85164;DHT22;75530;49.300;6.846;2024-02-23T03:23:11;27.50;99.90
85164;DHT22;75530;49.300;6.846;2024-02-23T03:26:12;27.10;99.90
85164;DHT22;75530;49.300;6.846;2024-02-23T03:29:12;26.90;99.90
85164;DHT22;75530;49.300;6.846;2024-02-23T03:32:13;26.60;99.90
85164;DHT22;75530;49.300;6.846;2024-02-23T03:35:13;26.30;99.90
85164;DHT22;75530;49.300;6.846;2024-02-23T03:38:13;26.10;99.90
85164;DHT22;75530;49.300;6.846;2024-02-23T03:41:14;25.80;99.90
85164;DHT22;75530;49.300;6.846;2024-02-23T03:44:14;25.60;99.90
85164;DHT22;75530;49.300;6.846;2024-02-23T03:47:15;25.40;99.90
85164;DHT22;75530;49.300;6.846;2024-02-23T03:50:15;25.20;99.90
85164;DHT22;75530;49.300;6.846;2024-02-23T03:53:16;25.50;99.90
85164;DHT22;75530;49.300;6.846;2024-02-23T03:56:16;32.10;99.90
85164;DHT22;75530;49.300;6.846;2024-02-23T03:59:17;39.80;99.90
85164;DHT22;75530;49.300;6.846;2024-02-23T04:02:17;38.90;99.90
85164;DHT22;75530;49.300;6.846;2024-02-23T04:05:18;37.20;99.90
85164;DHT22;75530;49.300;6.846;2024-02-23T04:08:19;36.30;99.90
85164;DHT22;75530;49.300;6.846;2024-02-23T04:11:20;35.50;99.90
85164;DHT22;75530;49.300;6.846;2024-02-23T04:14:20;34.80;99.90
85164;DHT22;75530;49.300;6.846;2024-02-23T04:17:20;34.10;99.90
85164;DHT22;75530;49.300;6.846;2024-02-23T04:20:21;33.40;99.90
85164;DHT22;75530;49.300;6.846;2024-02-23T04:23:21;32.80;99.90
85164;DHT22;75530;49.300;6.846;2024-02-23T04:26:23;32.20;99.90
85164;DHT22;75530;49.300;6.846;2024-02-23T04:29:23;31.60;99.90
85164;DHT22;75530;49.300;6.846;2024-02-23T04:32:24;31.10;99.90
85164;DHT22;75530;49.300;6.846;2024-02-23T04:35:24;30.60;99.90
85164;DHT22;75530;49.300;6.846;2024-02-23T04:38:24;31.30;99.90
85164;DHT22;75530;49.300;6.846;2024-02-23T04:41:25;38.70;99.90
85164;DHT22;75530;49.300;6.846;2024-02-23T04:44:26;39.40;99.90
85164;DHT22;75530;49.300;6.846;2024-02-23T04:47:26;37.70;99.90
85164;DHT22;75530;49.300;6.846;2024-02-23T04:50:27;42.60;99.90
85164;DHT22;75530;49.300;6.846;2024-02-23T04:53:27;41.20;99.90
85164;DHT22;75530;49.300;6.846;2024-02-23T04:56:28;39.80;99.90
85164;DHT22;75530;49.300;6.846;2024-02-23T04:59:29;38.90;99.90
85164;DHT22;75530;49.300;6.846;2024-02-23T05:02:31;38.10;99.90
85164;DHT22;75530;49.300;6.846;2024-02-23T05:05:35;37.20;99.90
85164;DHT22;75530;49.300;6.846;2024-02-23T05:08:36;39.30;99.90
85164;DHT22;75530;49.300;6.846;2024-02-23T05:11:36;42.10;99.90
85164;DHT22;75530;49.300;6.846;2024-02-23T05:14:36;40.10;99.90
85164;DHT22;75530;49.300;6.846;2024-02-23T05:17:37;39.00;99.90
85164;DHT22;75530;49.300;6.846;2024-02-23T05:20:37;38.20;99.90
85164;DHT22;75530;49.300;6.846;2024-02-23T05:23:38;37.40;99.90
85164;DHT22;75530;49.300;6.846;2024-02-23T05:26:38;40.20;99.90
85164;DHT22;75530;49.300;6.846;2024-02-23T05:29:39;42.30;99.90
85164;DHT22;75530;49.300;6.846;2024-02-23T05:32:39;40.10;99.90
85164;DHT22;75530;49.300;6.846;2024-02-23T05:35:40;39.00;99.90
85164;DHT22;75530;49.300;6.846;2024-02-23T05:38:40;38.20;99.90
85164;DHT22;75530;49.300;6.846;2024-02-23T05:41:41;37.40;99.90
85164;DHT22;75530;49.300;6.846;2024-02-23T05:44:45;42.00;99.90
85164;DHT22;75530;49.300;6.846;2024-02-23T05:47:46;42.10;99.90
85164;DHT22;75530;49.300;6.846;2024-02-23T05:50:46;39.90;99.90
85164;DHT22;75530;49.300;6.846;2024-02-23T05:53:46;38.90;99.90
85164;DHT22;75530;49.300;6.846;2024-02-23T05:56:47;38.00;99.90
85164;DHT22;75530;49.300;6.846;2024-02-23T05:59:47;39.20;99.90
85164;DHT22;75530;49.300;6.846;2024-02-23T06:02:48;43.20;99.90
85164;DHT22;75530;49.300;6.846;2024-02-23T06:05:48;40.90;99.90
85164;DHT22;75530;49.300;6.846;2024-02-23T06:08:49;39.30;99.90
85164;DHT22;75530;49.300;6.846;2024-02-23T06:11:52;38.40;99.90
85164;DHT22;75530;49.300;6.846;2024-02-23T06:14:52;37.50;99.90
85164;DHT22;75530;49.300;6.846;2024-02-23T06:17:53;36.10;99.90
85164;DHT22;75530;49.300;6.846;2024-02-23T06:20:53;38.00;99.90
85164;DHT22;75530;49.300;6.846;2024-02-23T06:23:54;48.50;99.90
85164;DHT22;75530;49.300;6.846;2024-02-23T06:26:54;56.20;99.90
85164;DHT22;75530;49.300;6.846;2024-02-23T06:29:55;55.40;99.90
85164;DHT22;75530;49.300;6.846;2024-02-23T06:32:56;52.50;99.90
85164;DHT22;75530;49.300;6.846;2024-02-23T06:35:56;55.00;99.90
85164;DHT22;75530;49.300;6.846;2024-02-23T06:38:56;57.10;99.90
85164;DHT22;75530;49.300;6.846;2024-02-23T06:41:57;55.10;99.90
85164;DHT22;75530;49.300;6.846;2024-02-23T06:45:00;52.20;99.90
85164;DHT22;75530;49.300;6.846;2024-02-23T06:48:01;53.90;99.90
85164;DHT22;75530;49.300;6.846;2024-02-23T06:51:02;56.50;99.90
85164;DHT22;75530;49.300;6.846;2024-02-23T06:54:03;55.20;99.90
85164;DHT22;75530;49.300;6.846;2024-02-23T06:57:04;52.80;99.90
85164;DHT22;75530;49.300;6.846;2024-02-23T07:00:04;51.90;99.90
85164;DHT22;75530;49.300;6.846;2024-02-23T07:03:05;56.00;99.90
85164;DHT22;75530;49.300;6.846;2024-02-23T07:06:05;56.40;99.90
85164;DHT22;75530;49.300;6.846;2024-02-23T07:09:06;54.50;99.90
85164;DHT22;75530;49.300;6.846;2024-02-23T07:12:06;52.40;99.90
85164;DHT22;75530;49.300;6.846;2024-02-23T07:15:07;51.60;99.90
85164;DHT22;75530;49.300;6.846;2024-02-23T07:18:07;55.70;99.90
85164;DHT22;75530;49.300;6.846;2024-02-23T07:21:08;56.10;99.90
85164;DHT22;75530;49.300;6.846;2024-02-23T07:24:09;51.20;99.90
85164;DHT22;75530;49.300;6.846;2024-02-23T07:27:09;41.40;99.90
85164;DHT22;75530;49.300;6.846;2024-02-23T07:30:10;41.20;99.90
85164;DHT22;75530;49.300;6.846;2024-02-23T07:33:11;43.00;99.90
85164;DHT22;75530;49.300;6.846;2024-02-23T07:36:14;41.10;99.90
85164;DHT22;75530;49.300;6.846;2024-02-23T07:39:15;39.70;99.90
85164;DHT22;75530;49.300;6.846;2024-02-23T07:42:15;38.60;99.90
85164;DHT22;75530;49.300;6.846;2024-02-23T07:45:18;37.60;99.90
85164;DHT22;75530;49.300;6.846;2024-02-23T07:48:19;37.50;99.90
85164;DHT22;75530;49.300;6.846;2024-02-23T07:51:20;42.70;99.90
85164;DHT22;75530;49.300;6.846;2024-02-23T07:54:20;41.00;99.90
85164;DHT22;75530;49.300;6.846;2024-02-23T07:57:21;39.50;99.90
85164;DHT22;75530;49.300;6.846;2024-02-23T08:00:21;38.40;99.90
85164;DHT22;75530;49.300;6.846;2024-02-23T08:03:22;37.50;99.90
85164;DHT22;75530;49.300;6.846;2024-02-23T08:06:22;36.70;99.90
85164;DHT22;75530;49.300;6.846;2024-02-23T08:09:22;41.90;99.90
85164;DHT22;75530;49.300;6.846;2024-02-23T08:12:24;41.60;99.90
85164;DHT22;75530;49.300;6.846;2024-02-23T08:15:24;39.70;99.90
85164;DHT22;75530;49.300;6.846;2024-02-23T08:18:25;38.50;99.90
85164;DHT22;75530;49.300;6.846;2024-02-23T08:21:25;37.60;99.90
85164;DHT22;75530;49.300;6.846;2024-02-23T08:24:26;36.80;99.90
85164;DHT22;75530;49.300;6.846;2024-02-23T08:27:26;37.30;99.90
85164;DHT22;75530;49.300;6.846;2024-02-23T08:30:27;42.70;99.90
85164;DHT22;75530;49.300;6.846;2024-02-23T08:33:28;40.50;99.90
85164;DHT22;75530;49.300;6.846;2024-02-23T08:36:28;38.90;99.90
85164;DHT22;75530;49.300;6.846;2024-02-23T08:39:29;37.90;99.90
85164;DHT22;75530;49.300;6.846;2024-02-23T08:42:29;37.10;99.90
85164;DHT22;75530;49.300;6.846;2024-02-23T08:45:30;36.30;99.90
85164;DHT22;75530;49.300;6.846;2024-02-23T08:48:30;37.30;99.90
85164;DHT22;75530;49.300;6.846;2024-02-23T08:51:31;42.70;99.90
85164;DHT22;75530;49.300;6.846;2024-02-23T08:54:31;40.30;99.90
85164;DHT22;75530;49.300;6.846;2024-02-23T08:57:32;38.50;99.90
85164;DHT22;75530;49.300;6.846;2024-02-23T09:00:32;37.50;99.90
85164;DHT22;75530;49.300;6.846;2024-02-23T09:03:33;36.80;99.90
85164;DHT22;75530;49.300;6.846;2024-02-23T09:06:33;35.90;99.90
85164;DHT22;75530;49.300;6.846;2024-02-23T09:09:33;38.40;99.90
85164;DHT22;75530;49.300;6.846;2024-02-23T09:12:34;42.40;99.90
85164;DHT22;75530;49.300;6.846;2024-02-23T09:15:34;39.80;99.90
85164;DHT22;75530;49.300;6.846;2024-02-23T09:18:35;38.10;99.90
85164;DHT22;75530;49.300;6.846;2024-02-23T09:21:36;37.30;99.90
85164;DHT22;75530;49.300;6.846;2024-02-23T09:24:39;36.40;99.90
85164;DHT22;75530;49.300;6.846;2024-02-23T09:27:40;35.60;99.90
85164;DHT22;75530;49.300;6.846;2024-02-23T09:30:43;39.70;99.90
85164;DHT22;75530;49.300;6.846;2024-02-23T09:33:44;42.50;99.90
85164;DHT22;75530;49.300;6.846;2024-02-23T09:36:46;39.90;99.90
85164;DHT22;75530;49.300;6.846;2024-02-23T09:39:46;38.40;99.90
85164;DHT22;75530;49.300;6.846;2024-02-23T09:42:55;37.60;99.90
85164;DHT22;75530;49.300;6.846;2024-02-23T09:45:56;36.80;99.90
85164;DHT22;75530;49.300;6.846;2024-02-23T09:48:57;35.90;99.90
85164;DHT22;75530;49.300;6.846;2024-02-23T09:51:58;35.60;99.90
85164;DHT22;75530;49.300;6.846;2024-02-23T09:54:59;42.30;99.90
85164;DHT22;75530;49.300;6.846;2024-02-23T09:58:00;41.50;99.90
85164;DHT22;75530;49.300;6.846;2024-02-23T10:01:02;39.10;99.90
85164;DHT22;75530;49.300;6.846;2024-02-23T10:04:03;38.00;99.90
85164;DHT22;75530;49.300;6.846;2024-02-23T10:07:07;37.20;99.90
85164;DHT22;75530;49.300;6.846;2024-02-23T10:10:07;36.50;99.90
85164;DHT22;75530;49.300;6.846;2024-02-23T10:13:08;35.70;99.90
85164;DHT22;75530;49.300;6.846;2024-02-23T10:16:09;34.90;99.90
85164;DHT22;75530;49.300;6.846;2024-02-23T10:19:09;38.40;99.90
85164;DHT22;75530;49.300;6.846;2024-02-23T10:22:10;42.60;99.90
85164;DHT22;75530;49.300;6.846;2024-02-23T10:25:10;40.00;99.90
85164;DHT22;75530;49.300;6.846;2024-02-23T10:28:11;38.40;99.90
85164;DHT22;75530;49.300;6.846;2024-02-23T10:31:11;37.60;99.90
85164;DHT22;75530;49.300;6.846;2024-02-23T10:34:11;36.80;99.90
85164;DHT22;75530;49.300;6.846;2024-02-23T10:37:14;36.10;99.90
85164;DHT22;75530;49.300;6.846;2024-02-23T10:40:14;35.30;99.90
85164;DHT22;75530;49.300;6.846;2024-02-23T10:43:17;34.60;99.90
85164;DHT22;75530;49.300;6.846;2024-02-23T10:46:19;40.40;99.90
85164;DHT22;75530;49.300;6.846;2024-02-23T10:49:20;42.40;99.90
85164;DHT22;75530;49.300;6.846;2024-02-23T10:52:26;39.70;99.90
85164;DHT22;75530;49.300;6.846;2024-02-23T10:55:27;38.50;99.90
85164;DHT22;75530;49.300;6.846;2024-02-23T10:58:28;38.00;99.90
85164;DHT22;75530;49.300;6.846;2024-02-23T11:01:28;37.40;99.90
85164;DHT22;75530;49.300;6.846;2024-02-23T11:04:29;36.70;99.90
85164;DHT22;75530;49.300;6.846;2024-02-23T11:07:31;36.20;99.90
85164;DHT22;75530;49.300;6.846;2024-02-23T11:10:41;35.50;99.90
85164;DHT22;75530;49.300;6.846;2024-02-23T11:13:43;35.00;99.90
85164;DHT22;75530;49.300;6.846;2024-02-23T11:16:44;34.40;99.90
85164;DHT22;75530;49.300;6.846;2024-02-23T11:19:45;33.80;99.90
85164;DHT22;75530;49.300;6.846;2024-02-23T11:22:46;35.50;99.90
85164;DHT22;75530;49.300;6.846;2024-02-23T11:25:58;42.50;99.90
85164;DHT22;75530;49.300;6.846;2024-02-23T11:28:59;40.30;99.90
85164;DHT22;75530;49.300;6.846;2024-02-23T11:32:00;38.60;99.90
85164;DHT22;75530;49.300;6.846;2024-02-23T11:35:04;37.80;99.90
85164;DHT22;75530;49.300;6.846;2024-02-23T11:38:06;37.10;99.90
85164;DHT22;75530;49.300;6.846;2024-02-23T11:41:07;36.40;99.90
85164;DHT22;75530;49.300;6.846;2024-02-23T11:44:07;35.70;99.90
85164;DHT22;75530;49.300;6.846;2024-02-23T11:47:08;35.10;99.90
85164;DHT22;75530;49.300;6.846;2024-02-23T11:50:09;34.40;99.90
85164;DHT22;75530;49.300;6.846;2024-02-23T11:53:10;33.70;99.90
85164;DHT22;75530;49.300;6.846;2024-02-23T11:56:10;33.10;99.90
85164;DHT22;75530;49.300;6.846;2024-02-23T11:59:10;38.20;99.90
85164;DHT22;75530;49.300;6.846;2024-02-23T12:02:12;42.00;99.90
85164;DHT22;75530;49.300;6.846;2024-02-23T12:05:12;39.10;99.90
85164;DHT22;75530;49.300;6.846;2024-02-23T12:08:13;37.70;99.90
85164;DHT22;75530;49.300;6.846;2024-02-23T12:11:13;37.00;99.90
85164;DHT22;75530;49.300;6.846;2024-02-23T12:14:14;36.20;99.90
85164;DHT22;75530;49.300;6.846;2024-02-23T12:17:14;35.50;99.90
85164;DHT22;75530;49.300;6.846;2024-02-23T12:20:15;34.80;99.90
85164;DHT22;75530;49.300;6.846;2024-02-23T12:23:16;34.20;99.90
85164;DHT22;75530;49.300;6.846;2024-02-23T12:26:17;33.50;99.90
85164;DHT22;75530;49.300;6.846;2024-02-23T12:29:18;32.90;99.90
85164;DHT22;75530;49.300;6.846;2024-02-23T12:32:19;35.80;99.90
85164;DHT22;75530;49.300;6.846;2024-02-23T12:35:20;42.10;99.90
85164;DHT22;75530;49.300;6.846;2024-02-23T12:38:21;39.50;99.90
85164;DHT22;75530;49.300;6.846;2024-02-23T12:41:22;37.90;99.90
85164;DHT22;75530;49.300;6.846;2024-02-23T12:44:23;37.10;99.90
85164;DHT22;75530;49.300;6.846;2024-02-23T12:47:23;36.40;99.90
85164;DHT22;75530;49.300;6.846;2024-02-23T12:50:24;35.60;99.90
85164;DHT22;75530;49.300;6.846;2024-02-23T12:53:32;35.00;99.90
85164;DHT22;75530;49.300;6.846;2024-02-23T12:56:33;34.30;99.90
85164;DHT22;75530;49.300;6.846;2024-02-23T12:59:33;33.60;99.90
85164;DHT22;75530;49.300;6.846;2024-02-23T13:02:34;33.00;99.90
85164;DHT22;75530;49.300;6.846;2024-02-23T13:05:34;33.50;99.90
85164;DHT22;75530;49.300;6.846;2024-02-23T13:08:35;41.30;99.90
85164;DHT22;75530;49.300;6.846;2024-02-23T13:11:35;40.40;99.90
85164;DHT22;75530;49.300;6.846;2024-02-23T13:14:38;38.20;99.90
85164;DHT22;75530;49.300;6.846;2024-02-23T13:17:38;37.30;99.90
85164;DHT22;75530;49.300;6.846;2024-02-23T13:20:39;36.60;99.90
85164;DHT22;75530;49.300;6.846;2024-02-23T13:23:41;35.80;99.90
85164;DHT22;75530;49.300;6.846;2024-02-23T13:26:43;35.10;99.90
85164;DHT22;75530;49.300;6.846;2024-02-23T13:29:43;34.40;99.90
85164;DHT22;75530;49.300;6.846;2024-02-23T13:32:44;33.80;99.90
85164;DHT22;75530;49.300;6.846;2024-02-23T13:35:44;33.10;99.90
85164;DHT22;75530;49.300;6.846;2024-02-23T13:38:45;35.60;99.90
85164;DHT22;75530;49.300;6.846;2024-02-23T13:41:45;42.10;99.90
85164;DHT22;75530;49.300;6.846;2024-02-23T13:44:46;39.60;99.90
85164;DHT22;75530;49.300;6.846;2024-02-23T13:48:00;38.00;99.90
85164;DHT22;75530;49.300;6.846;2024-02-23T13:51:01;37.20;99.90
85164;DHT22;75530;49.300;6.846;2024-02-23T13:54:03;36.40;99.90
85164;DHT22;75530;49.300;6.846;2024-02-23T13:57:04;35.70;99.90
85164;DHT22;75530;49.300;6.846;2024-02-23T14:00:04;35.00;99.90
85164;DHT22;75530;49.300;6.846;2024-02-23T14:03:08;34.40;99.90
85164;DHT22;75530;49.300;6.846;2024-02-23T14:06:11;33.80;99.90
85164;DHT22;75530;49.300;6.846;2024-02-23T14:09:11;33.20;99.90
85164;DHT22;75530;49.300;6.846;2024-02-23T14:12:12;35.10;99.90
85164;DHT22;75530;49.300;6.846;2024-02-23T14:15:12;42.20;99.90
85164;DHT22;75530;49.300;6.846;2024-02-23T14:18:13;40.00;99.90
85164;DHT22;75530;49.300;6.846;2024-02-23T14:21:13;38.30;99.90
85164;DHT22;75530;49.300;6.846;2024-02-23T14:24:14;37.50;99.90
85164;DHT22;75530;49.300;6.846;2024-02-23T14:27:15;36.80;99.90
85164;DHT22;75530;49.300;6.846;2024-02-23T14:30:15;36.10;99.90
85164;DHT22;75530;49.300;6.846;2024-02-23T14:33:16;35.50;99.90
85164;DHT22;75530;49.300;6.846;2024-02-23T14:36:17;34.80;99.90
85164;DHT22;75530;49.300;6.846;2024-02-23T14:39:17;34.20;99.90
85164;DHT22;75530;49.300;6.846;2024-02-23T14:42:18;34.00;99.90
85164;DHT22;75530;49.300;6.846;2024-02-23T14:45:19;41.30;99.90
85164;DHT22;75530;49.300;6.846;2024-02-23T14:48:19;41.00;99.90
85164;DHT22;75530;49.300;6.846;2024-02-23T14:51:19;38.80;99.90
85164;DHT22;75530;49.300;6.846;2024-02-23T14:54:20;37.80;99.90
85164;DHT22;75530;49.300;6.846;2024-02-23T14:57:20;36.90;99.90
85164;DHT22;75530;49.300;6.846;2024-02-23T15:00:22;36.20;99.90
85164;DHT22;75530;49.300;6.846;2024-02-23T15:03:22;35.40;99.90
85164;DHT22;75530;49.300;6.846;2024-02-23T15:06:23;34.70;99.90
85164;DHT22;75530;49.300;6.846;2024-02-23T15:09:24;37.30;99.90
85164;DHT22;75530;49.300;6.846;2024-02-23T15:12:24;42.50;99.90
85164;DHT22;75530;49.300;6.846;2024-02-23T15:15:28;40.00;99.90
85164;DHT22;75530;49.300;6.846;2024-02-23T15:18:29;38.50;99.90
85164;DHT22;75530;49.300;6.846;2024-02-23T15:21:29;37.70;99.90
85164;DHT22;75530;49.300;6.846;2024-02-23T15:24:29;37.00;99.90
85164;DHT22;75530;49.300;6.846;2024-02-23T15:27:30;36.30;99.90
85164;DHT22;75530;49.300;6.846;2024-02-23T15:30:30;35.60;99.90
85164;DHT22;75530;49.300;6.846;2024-02-23T15:33:32;34.90;99.90
85164;DHT22;75530;49.300;6.846;2024-02-23T15:36:33;34.30;99.90
85164;DHT22;75530;49.300;6.846;2024-02-23T15:39:33;38.60;99.90
85164;DHT22;75530;49.300;6.846;2024-02-23T15:42:33;42.00;99.90
85164;DHT22;75530;49.300;6.846;2024-02-23T15:45:35;39.40;99.90
85164;DHT22;75530;49.300;6.846;2024-02-23T15:48:36;38.10;99.90
85164;DHT22;75530;49.300;6.846;2024-02-23T15:51:37;37.40;99.90
85164;DHT22;75530;49.300;6.846;2024-02-23T15:54:38;36.60;99.90
85164;DHT22;75530;49.300;6.846;2024-02-23T15:57:38;34.60;99.90
85164;DHT22;75530;49.300;6.846;2024-02-23T16:00:39;36.80;99.90
85164;DHT22;75530;49.300;6.846;2024-02-23T16:03:39;41.30;99.90
85164;DHT22;75530;49.300;6.846;2024-02-23T16:06:40;40.10;99.90
85164;DHT22;75530;49.300;6.846;2024-02-23T16:09:40;39.30;99.90
85164;DHT22;75530;49.300;6.846;2024-02-23T16:12:41;38.40;99.90
85164;DHT22;75530;49.300;6.846;2024-02-23T16:15:41;37.60;99.90
85164;DHT22;75530;49.300;6.846;2024-02-23T16:18:42;36.80;99.90
85164;DHT22;75530;49.300;6.846;2024-02-23T16:21:43;36.00;99.90
85164;DHT22;75530;49.300;6.846;2024-02-23T16:24:43;35.30;99.90
85164;DHT22;75530;49.300;6.846;2024-02-23T16:27:45;34.60;99.90
85164;DHT22;75530;49.300;6.846;2024-02-23T16:30:46;35.70;99.90
85164;DHT22;75530;49.300;6.846;2024-02-23T16:33:47;41.20;99.90
85164;DHT22;75530;49.300;6.846;2024-02-23T16:36:47;40.30;99.90
85164;DHT22;75530;49.300;6.846;2024-02-23T16:39:48;39.50;99.90
85164;DHT22;75530;49.300;6.846;2024-02-23T16:42:48;38.70;99.90
85164;DHT22;75530;49.300;6.846;2024-02-23T16:45:49;37.80;99.90
85164;DHT22;75530;49.300;6.846;2024-02-23T16:48:50;37.00;99.90
85164;DHT22;75530;49.300;6.846;2024-02-23T16:51:50;36.10;99.90
85164;DHT22;75530;49.300;6.846;2024-02-23T16:54:51;35.30;99.90
85164;DHT22;75530;49.300;6.846;2024-02-23T16:57:51;35.10;99.90
85164;DHT22;75530;49.300;6.846;2024-02-23T17:00:52;40.40;99.90
85164;DHT22;75530;49.300;6.846;2024-02-23T17:03:55;40.70;99.90
85164;DHT22;75530;49.300;6.846;2024-02-23T17:06:55;39.80;99.90
85164;DHT22;75530;49.300;6.846;2024-02-23T17:09:57;38.80;99.90
85164;DHT22;75530;49.300;6.846;2024-02-23T17:12:57;37.80;99.90
85164;DHT22;75530;49.300;6.846;2024-02-23T17:15:58;36.90;99.90
85164;DHT22;75530;49.300;6.846;2024-02-23T17:18:58;35.90;99.90
85164;DHT22;75530;49.300;6.846;2024-02-23T17:22:00;35.10;99.90
85164;DHT22;75530;49.300;6.846;2024-02-23T17:25:00;39.00;99.90
85164;DHT22;75530;49.300;6.846;2024-02-23T17:28:01;41.10;99.90
85164;DHT22;75530;49.300;6.846;2024-02-23T17:31:01;40.10;99.90
85164;DHT22;75530;49.300;6.846;2024-02-23T17:34:02;39.30;99.90
85164;DHT22;75530;49.300;6.846;2024-02-23T17:37:02;38.40;99.90
85164;DHT22;75530;49.300;6.846;2024-02-23T17:40:07;37.50;99.90
85164;DHT22;75530;49.300;6.846;2024-02-23T17:43:07;36.60;99.90
85164;DHT22;75530;49.300;6.846;2024-02-23T17:46:08;35.80;99.90
85164;DHT22;75530;49.300;6.846;2024-02-23T17:49:08;35.60;99.90
85164;DHT22;75530;49.300;6.846;2024-02-23T17:52:09;41.00;99.90
85164;DHT22;75530;49.300;6.846;2024-02-23T17:55:09;40.80;99.90
85164;DHT22;75530;49.300;6.846;2024-02-23T17:58:10;39.90;99.90
85164;DHT22;75530;49.300;6.846;2024-02-23T18:01:10;39.10;99.90
85164;DHT22;75530;49.300;6.846;2024-02-23T18:04:11;38.30;99.90
85164;DHT22;75530;49.300;6.846;2024-02-23T18:07:12;37.50;99.90
85164;DHT22;75530;49.300;6.846;2024-02-23T18:10:12;36.60;99.90
85164;DHT22;75530;49.300;6.846;2024-02-23T18:13:13;35.80;99.90
85164;DHT22;75530;49.300;6.846;2024-02-23T18:16:13;36.50;99.90
85164;DHT22;75530;49.300;6.846;2024-02-23T18:19:18;41.60;99.90
85164;DHT22;75530;49.300;6.846;2024-02-23T18:22:20;40.70;99.90
85164;DHT22;75530;49.300;6.846;2024-02-23T18:25:21;39.80;99.90
85164;DHT22;75530;49.300;6.846;2024-02-23T18:28:22;39.00;99.90
85164;DHT22;75530;49.300;6.846;2024-02-23T18:31:22;38.20;99.90
85164;DHT22;75530;49.300;6.846;2024-02-23T18:34:23;37.40;99.90
85164;DHT22;75530;49.300;6.846;2024-02-23T18:37:23;36.70;99.90
85164;DHT22;75530;49.300;6.846;2024-02-23T18:40:24;36.00;99.90
85164;DHT22;75530;49.300;6.846;2024-02-23T18:43:24;35.40;99.90
85164;DHT22;75530;49.300;6.846;2024-02-23T18:46:25;39.60;99.90
85164;DHT22;75530;49.300;6.846;2024-02-23T18:49:25;41.30;99.90
85164;DHT22;75530;49.300;6.846;2024-02-23T18:52:29;40.30;99.90
85164;DHT22;75530;49.300;6.846;2024-02-23T18:55:29;39.60;99.90
85164;DHT22;75530;49.300;6.846;2024-02-23T18:58:31;38.90;99.90
85164;DHT22;75530;49.300;6.846;2024-02-23T19:01:32;38.10;99.90